Hueytown, Alabama
Current Conditions -  °F | °C
As of 11:53 PM on Sunday 25 Jan 2015 (Local Time) from KBHM Reporting Station
Overcast Overcast  
Wind Chill: 39°   Ceiling: 5500
Heat Index: 45°   Visibility: 10mi
Dew Point: 40°   Wind: 13mph
Humidity: 82%   Direction: 290°WNW
Pressure: 29.83"   Gusts: 20mph
Location:  33.44°N, 86.99°W
Report Text: KBHM 260553Z 29011G17KT 10SM OVC055 07/04 A2983 RMK AO2 SLP100 60004 T00720044 10139 20067 401611011 56003
Loading
Personal Weather Stations






























Interactive Weather Map New forecast layout! Learn more

10-Day Weather Forecast

Advertisements
Track Severe Weather on mobile